sensor_id;sensor_type;location;lat;lon;timestamp;pressure;altitude;pressure_sealevel;temperature;humidity
44198;BME280;30157;55.512;37.764;2023-04-26T00:00:49;98700.59;;;11.99;82.31
44198;BME280;30157;55.512;37.764;2023-04-26T00:03:15;98711.00;;;11.99;82.27
44198;BME280;30157;55.512;37.764;2023-04-26T00:05:40;98658.16;;;11.67;82.39
44198;BME280;30157;55.512;37.764;2023-04-26T00:08:07;98702.59;;;11.89;82.72
44198;BME280;30157;55.512;37.764;2023-04-26T00:10:33;98654.81;;;11.62;82.97
44198;BME280;30157;55.512;37.764;2023-04-26T00:12:59;98698.38;;;11.85;82.86
44198;BME280;30157;55.512;37.764;2023-04-26T00:15:25;98656.53;;;11.63;82.72
44198;BME280;30157;55.512;37.764;2023-04-26T00:17:51;98690.47;;;11.88;82.86
44198;BME280;30157;55.512;37.764;2023-04-26T00:20:17;98693.03;;;11.90;82.52
44198;BME280;30157;55.512;37.764;2023-04-26T00:22:43;98667.25;;;11.82;82.50
44198;BME280;30157;55.512;37.764;2023-04-26T00:25:09;98655.25;;;11.78;82.50
44198;BME280;30157;55.512;37.764;2023-04-26T00:27:35;98628.09;;;11.57;82.06
44198;BME280;30157;55.512;37.764;2023-04-26T00:30:01;98647.75;;;11.67;81.90
44198;BME280;30157;55.512;37.764;2023-04-26T00:32:30;98676.06;;;11.76;81.74
44198;BME280;30157;55.512;37.764;2023-04-26T00:34:56;98527.16;;;10.80;81.84
44198;BME280;30157;55.512;37.764;2023-04-26T00:37:22;98663.66;;;11.55;82.48
44198;BME280;30157;55.512;37.764;2023-04-26T00:39:48;98611.56;;;11.28;82.46
44198;BME280;30157;55.512;37.764;2023-04-26T00:42:13;98663.50;;;11.61;82.82
44198;BME280;30157;55.512;37.764;2023-04-26T00:44:40;98636.19;;;11.46;82.95
44198;BME280;30157;55.512;37.764;2023-04-26T00:47:06;98621.84;;;11.33;82.90
44198;BME280;30157;55.512;37.764;2023-04-26T00:49:32;98645.75;;;11.44;83.33
44198;BME280;30157;55.512;37.764;2023-04-26T00:51:58;98655.81;;;11.58;83.61
44198;BME280;30157;55.512;37.764;2023-04-26T00:54:24;98632.81;;;11.42;83.71
44198;BME280;30157;55.512;37.764;2023-04-26T00:56:50;98649.75;;;11.57;83.73
44198;BME280;30157;55.512;37.764;2023-04-26T00:59:19;98629.19;;;11.50;83.67
44198;BME280;30157;55.512;37.764;2023-04-26T01:01:45;98624.16;;;11.43;83.58
44198;BME280;30157;55.512;37.764;2023-04-26T01:04:12;98645.63;;;11.50;83.63
44198;BME280;30157;55.512;37.764;2023-04-26T01:06:39;98575.06;;;11.01;83.56
44198;BME280;30157;55.512;37.764;2023-04-26T01:09:05;98640.53;;;11.46;83.91
44198;BME280;30157;55.512;37.764;2023-04-26T01:11:35;98636.31;;;11.41;84.09
44198;BME280;30157;55.512;37.764;2023-04-26T01:14:02;98619.09;;;11.39;83.50
44198;BME280;30157;55.512;37.764;2023-04-26T01:16:29;98630.13;;;11.47;83.65
44198;BME280;30157;55.512;37.764;2023-04-26T01:18:55;98541.66;;;10.87;83.28
44198;BME280;30157;55.512;37.764;2023-04-26T01:21:23;98565.44;;;11.05;83.53
44198;BME280;30157;55.512;37.764;2023-04-26T01:23:50;98630.28;;;11.41;83.57
44198;BME280;30157;55.512;37.764;2023-04-26T01:26:17;98589.16;;;11.24;83.41
44198;BME280;30157;55.512;37.764;2023-04-26T01:28:43;98609.53;;;11.39;83.23
44198;BME280;30157;55.512;37.764;2023-04-26T01:31:10;98558.44;;;11.08;83.31
44198;BME280;30157;55.512;37.764;2023-04-26T01:33:36;98591.50;;;11.33;83.37
44198;BME280;30157;55.512;37.764;2023-04-26T01:36:05;98559.06;;;11.17;83.87
44198;BME280;30157;55.512;37.764;2023-04-26T01:38:32;98559.41;;;11.36;83.53
44198;BME280;30157;55.512;37.764;2023-04-26T01:40:57;98585.56;;;11.61;82.94
44198;BME280;30157;55.512;37.764;2023-04-26T01:43:23;98589.72;;;11.67;83.00
44198;BME280;30157;55.512;37.764;2023-04-26T01:45:49;98601.59;;;11.75;82.90
44198;BME280;30157;55.512;37.764;2023-04-26T01:48:30;98592.03;;;11.76;82.86
44198;BME280;30157;55.512;37.764;2023-04-26T01:51:00;98581.69;;;11.74;82.75
44198;BME280;30157;55.512;37.764;2023-04-26T01:53:26;98585.81;;;11.82;82.49
44198;BME280;30157;55.512;37.764;2023-04-26T01:55:51;98523.59;;;11.47;82.35
44198;BME280;30157;55.512;37.764;2023-04-26T01:58:17;98512.34;;;11.47;82.67
44198;BME280;30157;55.512;37.764;2023-04-26T02:00:43;98554.09;;;11.70;82.49
44198;BME280;30157;55.512;37.764;2023-04-26T02:03:12;98565.94;;;11.79;82.71
44198;BME280;30157;55.512;37.764;2023-04-26T02:05:37;98564.41;;;11.73;82.83
44198;BME280;30157;55.512;37.764;2023-04-26T02:08:04;98535.59;;;11.51;82.95
44198;BME280;30157;55.512;37.764;2023-04-26T02:10:30;98525.28;;;11.48;83.02
44198;BME280;30157;55.512;37.764;2023-04-26T02:12:56;98569.59;;;11.73;82.79
44198;BME280;30157;55.512;37.764;2023-04-26T02:15:23;98566.31;;;11.67;82.87
44198;BME280;30157;55.512;37.764;2023-04-26T02:17:49;98570.78;;;11.63;83.24
44198;BME280;30157;55.512;37.764;2023-04-26T02:20:15;98569.97;;;11.61;83.42
44198;BME280;30157;55.512;37.764;2023-04-26T02:22:41;98513.72;;;11.29;83.43
44198;BME280;30157;55.512;37.764;2023-04-26T02:25:07;98541.59;;;11.53;84.12
44198;BME280;30157;55.512;37.764;2023-04-26T02:27:33;98559.34;;;11.69;83.72
44198;BME280;30157;55.512;37.764;2023-04-26T02:30:00;98524.28;;;11.52;83.75
44198;BME280;30157;55.512;37.764;2023-04-26T02:32:26;98555.81;;;11.70;84.10
44198;BME280;30157;55.512;37.764;2023-04-26T02:34:52;98483.44;;;11.27;84.12
44198;BME280;30157;55.512;37.764;2023-04-26T02:37:19;98555.03;;;11.68;84.26
44198;BME280;30157;55.512;37.764;2023-04-26T02:39:50;98537.06;;;11.60;84.76
44198;BME280;30157;55.512;37.764;2023-04-26T02:42:16;98554.97;;;11.69;84.89
44198;BME280;30157;55.512;37.764;2023-04-26T02:44:42;98490.25;;;11.32;84.87
44198;BME280;30157;55.512;37.764;2023-04-26T02:47:08;98531.91;;;11.58;85.01
44198;BME280;30157;55.512;37.764;2023-04-26T02:49:34;98542.94;;;11.67;85.21
44198;BME280;30157;55.512;37.764;2023-04-26T02:52:00;98543.88;;;11.64;85.44
44198;BME280;30157;55.512;37.764;2023-04-26T02:54:26;98540.38;;;11.65;85.64
44198;BME280;30157;55.512;37.764;2023-04-26T02:56:52;98423.63;;;11.01;85.71
44198;BME280;30157;55.512;37.764;2023-04-26T02:59:20;98538.50;;;11.70;86.02
44198;BME280;30157;55.512;37.764;2023-04-26T03:01:46;98528.91;;;11.72;86.05
44198;BME280;30157;55.512;37.764;2023-04-26T03:04:12;98533.88;;;11.80;85.96
44198;BME280;30157;55.512;37.764;2023-04-26T03:06:38;98459.75;;;11.38;85.53
44198;BME280;30157;55.512;37.764;2023-04-26T03:09:03;98514.16;;;11.73;85.67
44198;BME280;30157;55.512;37.764;2023-04-26T03:11:31;98527.06;;;11.76;85.65
44198;BME280;30157;55.512;37.764;2023-04-26T03:13:57;98530.59;;;11.73;85.75
44198;BME280;30157;55.512;37.764;2023-04-26T03:16:23;98519.50;;;11.68;85.73
44198;BME280;30157;55.512;37.764;2023-04-26T03:18:49;98494.91;;;11.50;85.40
44198;BME280;30157;55.512;37.764;2023-04-26T03:21:15;98476.16;;;11.40;85.90
44198;BME280;30157;55.512;37.764;2023-04-26T03:23:41;98510.03;;;11.66;85.94
44198;BME280;30157;55.512;37.764;2023-04-26T03:26:08;98508.31;;;11.66;85.93
44198;BME280;30157;55.512;37.764;2023-04-26T03:28:33;98509.97;;;11.69;85.79
44198;BME280;30157;55.512;37.764;2023-04-26T03:30:59;98494.41;;;11.67;85.89
44198;BME280;30157;55.512;37.764;2023-04-26T03:33:26;98474.91;;;11.54;85.66
44198;BME280;30157;55.512;37.764;2023-04-26T03:35:52;98508.16;;;11.71;85.44
44198;BME280;30157;55.512;37.764;2023-04-26T03:38:18;98474.03;;;11.53;85.57
44198;BME280;30157;55.512;37.764;2023-04-26T03:40:44;98497.03;;;11.67;85.38
44198;BME280;30157;55.512;37.764;2023-04-26T03:43:10;98488.50;;;11.62;85.29
44198;BME280;30157;55.512;37.764;2023-04-26T03:45:37;98503.00;;;11.69;85.33
44198;BME280;30157;55.512;37.764;2023-04-26T03:48:03;98486.69;;;11.64;85.50
44198;BME280;30157;55.512;37.764;2023-04-26T03:50:29;98356.66;;;10.84;85.17
44198;BME280;30157;55.512;37.764;2023-04-26T03:52:55;98481.59;;;11.61;85.22
44198;BME280;30157;55.512;37.764;2023-04-26T03:55:21;98455.22;;;11.45;84.87
44198;BME280;30157;55.512;37.764;2023-04-26T03:57:47;98449.25;;;11.43;85.49
44198;BME280;30157;55.512;37.764;2023-04-26T04:00:13;98481.72;;;11.58;85.62
44198;BME280;30157;55.512;37.764;2023-04-26T04:02:43;98487.50;;;11.66;85.63
44198;BME280;30157;55.512;37.764;2023-04-26T04:05:14;98480.56;;;11.67;85.34
44198;BME280;30157;55.512;37.764;2023-04-26T04:07:41;98474.84;;;11.55;85.38
44198;BME280;30157;55.512;37.764;2023-04-26T04:10:07;98464.56;;;11.51;85.59
44198;BME280;30157;55.512;37.764;2023-04-26T04:12:35;98487.50;;;11.66;85.59
44198;BME280;30157;55.512;37.764;2023-04-26T04:15:02;98466.19;;;11.55;85.41
44198;BME280;30157;55.512;37.764;2023-04-26T04:17:32;98474.63;;;11.63;85.71
44198;BME280;30157;55.512;37.764;2023-04-26T04:20:00;98482.31;;;11.66;85.52
44198;BME280;30157;55.512;37.764;2023-04-26T04:22:29;98436.28;;;11.41;85.74
44198;BME280;30157;55.512;37.764;2023-04-26T04:24:55;98476.13;;;11.70;85.68
44198;BME280;30157;55.512;37.764;2023-04-26T04:27:22;98462.25;;;11.71;85.26
44198;BME280;30157;55.512;37.764;2023-04-26T04:29:48;98452.78;;;11.69;85.35
44198;BME280;30157;55.512;37.764;2023-04-26T04:32:13;98477.56;;;11.79;85.21
44198;BME280;30157;55.512;37.764;2023-04-26T04:34:41;98462.47;;;11.64;85.39
44198;BME280;30157;55.512;37.764;2023-04-26T04:37:07;98482.75;;;11.81;85.36
44198;BME280;30157;55.512;37.764;2023-04-26T04:39:34;98475.03;;;11.77;85.48
44198;BME280;30157;55.512;37.764;2023-04-26T04:42:00;98479.22;;;11.82;85.65
44198;BME280;30157;55.512;37.764;2023-04-26T04:44:26;98474.91;;;11.82;85.23
44198;BME280;30157;55.512;37.764;2023-04-26T04:46:53;98474.91;;;11.82;85.46
44198;BME280;30157;55.512;37.764;2023-04-26T04:49:19;98477.34;;;11.87;85.30
44198;BME280;30157;55.512;37.764;2023-04-26T04:51:46;98426.44;;;11.53;85.11
44198;BME280;30157;55.512;37.764;2023-04-26T04:54:15;98378.78;;;11.24;85.08
44198;BME280;30157;55.512;37.764;2023-04-26T04:56:41;98457.88;;;11.72;85.30
44198;BME280;30157;55.512;37.764;2023-04-26T04:59:08;98485.09;;;11.88;85.45
44198;BME280;30157;55.512;37.764;2023-04-26T05:01:34;98471.34;;;11.85;85.17
44198;BME280;30157;55.512;37.764;2023-04-26T05:04:05;98485.00;;;11.91;85.04
44198;BME280;30157;55.512;37.764;2023-04-26T05:06:32;98456.09;;;11.74;85.21
44198;BME280;30157;55.512;37.764;2023-04-26T05:08:58;98379.44;;;11.32;84.98
44198;BME280;30157;55.512;37.764;2023-04-26T05:11:24;98426.97;;;11.63;85.19
44198;BME280;30157;55.512;37.764;2023-04-26T05:13:50;98469.34;;;11.95;85.48
44198;BME280;30157;55.512;37.764;2023-04-26T05:16:16;98454.84;;;11.86;85.59
44198;BME280;30157;55.512;37.764;2023-04-26T05:18:42;98477.16;;;11.93;85.58
44198;BME280;30157;55.512;37.764;2023-04-26T05:21:08;98472.91;;;11.90;85.83
44198;BME280;30157;55.512;37.764;2023-04-26T05:23:34;98465.84;;;11.94;85.93
44198;BME280;30157;55.512;37.764;2023-04-26T05:26:02;98480.50;;;11.98;86.09
44198;BME280;30157;55.512;37.764;2023-04-26T05:28:48;98449.69;;;11.84;86.28
44198;BME280;30157;55.512;37.764;2023-04-26T05:31:19;98469.28;;;11.96;86.47
44198;BME280;30157;55.512;37.764;2023-04-26T05:34:03;98448.63;;;11.90;86.70
44198;BME280;30157;55.512;37.764;2023-04-26T05:36:33;98475.97;;;12.05;86.74
44198;BME280;30157;55.512;37.764;2023-04-26T05:39:00;98451.84;;;12.00;86.35
44198;BME280;30157;55.512;37.764;2023-04-26T05:41:25;98427.91;;;11.88;86.35
44198;BME280;30157;55.512;37.764;2023-04-26T05:43:52;98471.31;;;12.15;86.38
44198;BME280;30157;55.512;37.764;2023-04-26T05:46:17;98423.38;;;11.95;86.55
44198;BME280;30157;55.512;37.764;2023-04-26T05:48:43;98431.69;;;12.06;86.54
44198;BME280;30157;55.512;37.764;2023-04-26T05:51:09;98474.91;;;12.37;85.83
44198;BME280;30157;55.512;37.764;2023-04-26T05:53:34;98458.72;;;12.27;85.82
44198;BME280;30157;55.512;37.764;2023-04-26T05:56:01;98450.91;;;12.29;85.88
44198;BME280;30157;55.512;37.764;2023-04-26T05:58:27;98470.69;;;12.33;85.77
44198;BME280;30157;55.512;37.764;2023-04-26T06:00:54;98472.59;;;12.28;85.94
44198;BME280;30157;55.512;37.764;2023-04-26T06:03:21;98466.63;;;12.24;86.19
44198;BME280;30157;55.512;37.764;2023-04-26T06:05:47;98465.38;;;12.36;86.03
44198;BME280;30157;55.512;37.764;2023-04-26T06:08:13;98482.41;;;12.45;86.07
44198;BME280;30157;55.512;37.764;2023-04-26T06:10:38;98474.41;;;12.51;85.76
44198;BME280;30157;55.512;37.764;2023-04-26T06:13:05;98476.13;;;12.52;85.54
44198;BME280;30157;55.512;37.764;2023-04-26T06:15:34;98485.53;;;12.56;85.36
44198;BME280;30157;55.512;37.764;2023-04-26T06:18:00;98477.06;;;12.50;85.45
44198;BME280;30157;55.512;37.764;2023-04-26T06:20:26;98492.47;;;12.56;85.26
44198;BME280;30157;55.512;37.764;2023-04-26T06:22:52;98483.81;;;12.55;85.35
44198;BME280;30157;55.512;37.764;2023-04-26T06:25:19;98455.94;;;12.34;85.14
44198;BME280;30157;55.512;37.764;2023-04-26T06:27:45;98476.25;;;12.48;85.35
44198;BME280;30157;55.512;37.764;2023-04-26T06:30:12;98464.50;;;12.37;85.39
44198;BME280;30157;55.512;37.764;2023-04-26T06:32:42;98472.13;;;12.42;85.36
44198;BME280;30157;55.512;37.764;2023-04-26T06:35:08;98472.97;;;12.42;85.57
44198;BME280;30157;55.512;37.764;2023-04-26T06:37:34;98464.69;;;12.31;85.90
44198;BME280;30157;55.512;37.764;2023-04-26T06:40:03;98494.53;;;12.46;85.90
44198;BME280;30157;55.512;37.764;2023-04-26T06:42:31;98493.84;;;12.41;85.93
44198;BME280;30157;55.512;37.764;2023-04-26T06:45:10;98474.50;;;12.23;85.65
44198;BME280;30157;55.512;37.764;2023-04-26T06:47:37;98403.97;;;11.79;85.90
44198;BME280;30157;55.512;37.764;2023-04-26T06:50:03;98432.66;;;12.04;86.25
44198;BME280;30157;55.512;37.764;2023-04-26T06:52:31;98487.94;;;12.36;85.84
44198;BME280;30157;55.512;37.764;2023-04-26T06:55:00;98499.16;;;12.38;85.97
44198;BME280;30157;55.512;37.764;2023-04-26T06:57:29;98467.63;;;12.20;85.80
44198;BME280;30157;55.512;37.764;2023-04-26T06:59:55;98504.34;;;12.38;86.20
44198;BME280;30157;55.512;37.764;2023-04-26T07:02:21;98510.44;;;12.37;86.31
44198;BME280;30157;55.512;37.764;2023-04-26T07:04:49;98512.97;;;12.40;86.82
44198;BME280;30157;55.512;37.764;2023-04-26T07:07:14;98504.16;;;12.44;86.60
44198;BME280;30157;55.512;37.764;2023-04-26T07:09:42;98469.19;;;12.26;86.10
44198;BME280;30157;55.512;37.764;2023-04-26T07:12:10;98506.78;;;12.42;85.81
44198;BME280;30157;55.512;37.764;2023-04-26T07:14:37;98496.59;;;12.36;85.89
44198;BME280;30157;55.512;37.764;2023-04-26T07:17:08;98496.59;;;12.36;85.68
44198;BME280;30157;55.512;37.764;2023-04-26T07:19:35;98505.00;;;12.44;85.44
44198;BME280;30157;55.512;37.764;2023-04-26T07:22:01;98523.06;;;12.49;85.83
44198;BME280;30157;55.512;37.764;2023-04-26T07:24:27;98518.59;;;12.53;85.82
44198;BME280;30157;55.512;37.764;2023-04-26T07:26:54;98511.59;;;12.55;85.74
44198;BME280;30157;55.512;37.764;2023-04-26T07:29:19;98514.56;;;12.69;85.41
44198;BME280;30157;55.512;37.764;2023-04-26T07:31:45;98528.16;;;12.77;85.19
44198;BME280;30157;55.512;37.764;2023-04-26T07:34:12;98501.66;;;12.66;84.82
44198;BME280;30157;55.512;37.764;2023-04-26T07:36:37;98505.94;;;12.69;84.58
44198;BME280;30157;55.512;37.764;2023-04-26T07:39:03;98526.91;;;12.89;84.36
44198;BME280;30157;55.512;37.764;2023-04-26T07:41:34;98435.75;;;12.40;84.29
44198;BME280;30157;55.512;37.764;2023-04-26T07:44:00;98490.78;;;12.80;84.27
44198;BME280;30157;55.512;37.764;2023-04-26T07:46:25;98528.41;;;13.20;83.98
44198;BME280;30157;55.512;37.764;2023-04-26T07:48:51;98523.75;;;13.30;83.56
44198;BME280;30157;55.512;37.764;2023-04-26T07:51:17;98532.88;;;13.42;83.16
44198;BME280;30157;55.512;37.764;2023-04-26T07:53:42;98492.63;;;13.25;82.62
44198;BME280;30157;55.512;37.764;2023-04-26T07:56:08;98532.44;;;13.54;81.98
44198;BME280;30157;55.512;37.764;2023-04-26T07:58:35;98515.31;;;13.47;81.88
44198;BME280;30157;55.512;37.764;2023-04-26T08:01:01;98540.97;;;13.58;81.23
44198;BME280;30157;55.512;37.764;2023-04-26T08:03:28;98518.06;;;13.44;80.59
44198;BME280;30157;55.512;37.764;2023-04-26T08:05:54;98535.28;;;13.48;80.68
44198;BME280;30157;55.512;37.764;2023-04-26T08:08:21;98545.81;;;13.45;80.25
44198;BME280;30157;55.512;37.764;2023-04-26T08:10:47;98540.03;;;13.35;80.49
44198;BME280;30157;55.512;37.764;2023-04-26T08:13:13;98534.94;;;13.32;80.48
44198;BME280;30157;55.512;37.764;2023-04-26T08:15:39;98494.00;;;13.12;80.40
44198;BME280;30157;55.512;37.764;2023-04-26T08:18:04;98463.44;;;12.92;79.94
44198;BME280;30157;55.512;37.764;2023-04-26T08:20:30;98564.28;;;13.39;80.29
44198;BME280;30157;55.512;37.764;2023-04-26T08:22:57;98563.44;;;13.38;80.31
44198;BME280;30157;55.512;37.764;2023-04-26T08:25:24;98556.75;;;13.30;80.09
44198;BME280;30157;55.512;37.764;2023-04-26T08:27:50;98571.38;;;13.34;79.93
44198;BME280;30157;55.512;37.764;2023-04-26T08:30:16;98542.31;;;13.21;80.09
44198;BME280;30157;55.512;37.764;2023-04-26T08:32:42;98536.25;;;13.20;79.71
44198;BME280;30157;55.512;37.764;2023-04-26T08:35:08;98553.13;;;13.34;79.74
44198;BME280;30157;55.512;37.764;2023-04-26T08:37:34;98560.59;;;13.44;80.07
44198;BME280;30157;55.512;37.764;2023-04-26T08:40:04;98502.31;;;13.22;79.41
44198;BME280;30157;55.512;37.764;2023-04-26T08:42:39;98574.66;;;13.64;79.28
44198;BME280;30157;55.512;37.764;2023-04-26T08:45:07;98542.53;;;13.40;79.49
44198;BME280;30157;55.512;37.764;2023-04-26T08:47:43;98549.53;;;13.38;79.28
44198;BME280;30157;55.512;37.764;2023-04-26T08:50:11;98566.69;;;13.43;79.25
44198;BME280;30157;55.512;37.764;2023-04-26T08:52:39;98554.03;;;13.33;79.25
44198;BME280;30157;55.512;37.764;2023-04-26T08:55:06;98547.91;;;13.34;79.23
44198;BME280;30157;55.512;37.764;2023-04-26T08:57:34;98579.53;;;13.50;79.03
44198;BME280;30157;55.512;37.764;2023-04-26T09:00:04;98563.19;;;13.44;78.95
44198;BME280;30157;55.512;37.764;2023-04-26T09:02:50;98567.41;;;13.72;78.84
44198;BME280;30157;55.512;37.764;2023-04-26T09:05:20;98581.78;;;13.83;78.98
44198;BME280;30157;55.512;37.764;2023-04-26T09:07:49;98572.25;;;13.82;78.33
44198;BME280;30157;55.512;37.764;2023-04-26T09:10:20;98508.91;;;13.32;78.19
44198;BME280;30157;55.512;37.764;2023-04-26T09:12:50;98564.69;;;13.52;78.51
44198;BME280;30157;55.512;37.764;2023-04-26T09:15:16;98582.81;;;13.55;78.67
44198;BME280;30157;55.512;37.764;2023-04-26T09:17:42;98586.88;;;13.62;78.65
44198;BME280;30157;55.512;37.764;2023-04-26T09:20:28;98558.78;;;13.47;78.42
44198;BME280;30157;55.512;37.764;2023-04-26T09:23:06;98592.91;;;13.64;78.13
44198;BME280;30157;55.512;37.764;2023-04-26T09:25:34;98596.41;;;13.63;78.14
44198;BME280;30157;55.512;37.764;2023-04-26T09:28:01;98598.97;;;13.65;78.18
44198;BME280;30157;55.512;37.764;2023-04-26T09:30:29;98546.22;;;13.33;77.94
44198;BME280;30157;55.512;37.764;2023-04-26T09:33:00;98598.38;;;13.56;77.53
44198;BME280;30157;55.512;37.764;2023-04-26T09:38:00;98613.84;;;13.37;78.16
44198;BME280;30157;55.512;37.764;2023-04-26T09:40:28;98608.81;;;13.31;78.71
44198;BME280;30157;55.512;37.764;2023-04-26T09:45:31;98614.00;;;13.31;79.13
44198;BME280;30157;55.512;37.764;2023-04-26T09:48:25;98620.09;;;13.32;79.34
44198;BME280;30157;55.512;37.764;2023-04-26T09:53:33;98455.97;;;12.32;80.31
44198;BME280;30157;55.512;37.764;2023-04-26T09:56:10;98618.22;;;13.60;79.74
44198;BME280;30157;55.512;37.764;2023-04-26T09:58:54;98609.50;;;13.61;79.67
44198;BME280;30157;55.512;37.764;2023-04-26T10:01:24;98577.25;;;13.40;79.47
44198;BME280;30157;55.512;37.764;2023-04-26T10:03:51;98624.31;;;13.61;79.39
44198;BME280;30157;55.512;37.764;2023-04-26T10:06:17;98631.66;;;13.50;78.89
44198;BME280;30157;55.512;37.764;2023-04-26T10:08:43;98647.66;;;13.39;79.28
44198;BME280;30157;55.512;37.764;2023-04-26T10:11:10;98500.16;;;12.34;80.24
44198;BME280;30157;55.512;37.764;2023-04-26T10:13:38;98651.19;;;13.11;81.18
44198;BME280;30157;55.512;37.764;2023-04-26T10:16:04;98628.09;;;13.00;81.49
44198;BME280;30157;55.512;37.764;2023-04-26T10:18:31;98647.53;;;13.17;81.31
44198;BME280;30157;55.512;37.764;2023-04-26T10:21:12;98649.19;;;13.44;80.26
44198;BME280;30157;55.512;37.764;2023-04-26T10:23:39;98611.47;;;13.55;78.31
44198;BME280;30157;55.512;37.764;2023-04-26T10:26:06;98652.88;;;14.11;77.42
44198;BME280;30157;55.512;37.764;2023-04-26T10:31:12;98656.28;;;14.58;77.45
44198;BME280;30157;55.512;37.764;2023-04-26T10:33:38;98658.56;;;14.67;77.54
44198;BME280;30157;55.512;37.764;2023-04-26T10:36:13;98677.59;;;14.47;76.92
44198;BME280;30157;55.512;37.764;2023-04-26T10:38:40;98674.44;;;14.39;77.39
44198;BME280;30157;55.512;37.764;2023-04-26T10:43:55;98687.97;;;14.26;77.98
44198;BME280;30157;55.512;37.764;2023-04-26T10:46:35;98680.47;;;14.17;78.05
44198;BME280;30157;55.512;37.764;2023-04-26T10:49:15;98673.19;;;14.03;78.28
44198;BME280;30157;55.512;37.764;2023-04-26T10:52:07;98681.91;;;14.02;78.33
44198;BME280;30157;55.512;37.764;2023-04-26T10:57:11;98674.13;;;14.01;78.08
44198;BME280;30157;55.512;37.764;2023-04-26T10:59:37;98586.72;;;13.43;77.45
44198;BME280;30157;55.512;37.764;2023-04-26T11:02:03;98697.94;;;13.91;77.76
44198;BME280;30157;55.512;37.764;2023-04-26T11:04:53;98707.16;;;14.02;77.85
44198;BME280;30157;55.512;37.764;2023-04-26T11:07:37;98673.50;;;13.94;77.71
44198;BME280;30157;55.512;37.764;2023-04-26T11:10:07;98687.22;;;14.23;76.62
44198;BME280;30157;55.512;37.764;2023-04-26T11:12:34;98698.25;;;14.31;76.14
44198;BME280;30157;55.512;37.764;2023-04-26T11:15:01;98691.59;;;14.22;76.11
44198;BME280;30157;55.512;37.764;2023-04-26T11:17:36;98644.25;;;13.86;76.38
44198;BME280;30157;55.512;37.764;2023-04-26T11:20:07;98702.44;;;14.11;76.50
44198;BME280;30157;55.512;37.764;2023-04-26T11:22:38;98711.63;;;13.98;76.25
44198;BME280;30157;55.512;37.764;2023-04-26T11:25:04;98687.59;;;13.65;76.81
44198;BME280;30157;55.512;37.764;2023-04-26T11:27:30;98705.78;;;13.66;77.21
44198;BME280;30157;55.512;37.764;2023-04-26T11:29:56;98717.81;;;13.70;77.55
44198;BME280;30157;55.512;37.764;2023-04-26T11:32:21;98675.38;;;13.41;77.92
44198;BME280;30157;55.512;37.764;2023-04-26T11:34:47;98718.25;;;13.58;78.04
44198;BME280;30157;55.512;37.764;2023-04-26T11:37:15;98711.97;;;13.38;78.94
44198;BME280;30157;55.512;37.764;2023-04-26T11:39:44;98685.66;;;13.19;80.09
44198;BME280;30157;55.512;37.764;2023-04-26T11:42:10;98724.38;;;13.30;80.20
44198;BME280;30157;55.512;37.764;2023-04-26T11:44:37;98720.63;;;13.39;80.08
44198;BME280;30157;55.512;37.764;2023-04-26T11:47:06;98722.75;;;13.53;79.91
44198;BME280;30157;55.512;37.764;2023-04-26T11:49:35;98678.34;;;13.56;78.88
44198;BME280;30157;55.512;37.764;2023-04-26T11:52:03;98699.88;;;15.22;74.77
44198;BME280;30157;55.512;37.764;2023-04-26T11:54:34;98708.13;;;16.72;69.83
44198;BME280;30157;55.512;37.764;2023-04-26T11:57:15;98727.16;;;18.00;66.84
44198;BME280;30157;55.512;37.764;2023-04-26T11:59:41;98702.69;;;18.33;64.51
44198;BME280;30157;55.512;37.764;2023-04-26T12:02:28;98639.16;;;18.72;62.20
44198;BME280;30157;55.512;37.764;2023-04-26T12:04:57;98709.91;;;19.23;60.94
44198;BME280;30157;55.512;37.764;2023-04-26T12:07:23;98673.84;;;17.82;62.82
44198;BME280;30157;55.512;37.764;2023-04-26T12:09:49;98692.28;;;17.11;64.79
44198;BME280;30157;55.512;37.764;2023-04-26T12:12:14;98683.59;;;18.45;61.71
44198;BME280;30157;55.512;37.764;2023-04-26T12:14:40;98679.59;;;19.46;58.63
44198;BME280;30157;55.512;37.764;2023-04-26T12:17:06;98667.84;;;18.45;59.45
44198;BME280;30157;55.512;37.764;2023-04-26T12:22:19;98674.31;;;16.85;63.94
44198;BME280;30157;55.512;37.764;2023-04-26T12:24:46;98708.81;;;16.75;64.70
44198;BME280;30157;55.512;37.764;2023-04-26T12:27:19;98722.31;;;17.04;64.09
44198;BME280;30157;55.512;37.764;2023-04-26T12:29:46;98710.19;;;18.87;58.33
44198;BME280;30157;55.512;37.764;2023-04-26T12:32:12;98712.72;;;21.21;52.80
44198;BME280;30157;55.512;37.764;2023-04-26T12:34:38;98711.53;;;22.67;49.16
44198;BME280;30157;55.512;37.764;2023-04-26T12:37:04;98711.13;;;23.21;47.17
44198;BME280;30157;55.512;37.764;2023-04-26T12:39:48;98699.66;;;22.96;46.21
44198;BME280;30157;55.512;37.764;2023-04-26T12:42:17;98672.81;;;22.28;47.07
44198;BME280;30157;55.512;37.764;2023-04-26T12:44:42;98707.84;;;21.80;47.39
44198;BME280;30157;55.512;37.764;2023-04-26T12:47:08;98664.59;;;19.63;51.34
44198;BME280;30157;55.512;37.764;2023-04-26T12:49:34;98717.94;;;18.90;54.77
44198;BME280;30157;55.512;37.764;2023-04-26T12:52:00;98699.69;;;17.89;57.78
44198;BME280;30157;55.512;37.764;2023-04-26T12:54:25;98716.78;;;17.45;58.96
44198;BME280;30157;55.512;37.764;2023-04-26T12:56:51;98689.25;;;16.83;58.78
44198;BME280;30157;55.512;37.764;2023-04-26T12:59:17;98683.88;;;16.30;58.50
44198;BME280;30157;55.512;37.764;2023-04-26T13:01:43;98739.28;;;16.59;59.52
44198;BME280;30157;55.512;37.764;2023-04-26T13:04:08;98719.16;;;16.78;58.37
44198;BME280;30157;55.512;37.764;2023-04-26T13:06:35;98705.28;;;16.76;57.51
44198;BME280;30157;55.512;37.764;2023-04-26T13:09:01;98743.13;;;16.90;58.21
44198;BME280;30157;55.512;37.764;2023-04-26T13:11:27;98741.75;;;16.81;58.23